sensor_id;sensor_type;location;lat;lon;timestamp;pressure;altitude;pressure_sealevel;temperature;humidity
57859;BME280;49153;45.568;11.894;2022-08-03T00:01:04;101419.03;;;25.18;59.42
57859;BME280;49153;45.568;11.894;2022-08-03T00:03:30;101411.22;;;25.09;59.76
57859;BME280;49153;45.568;11.894;2022-08-03T00:05:55;101417.56;;;25.16;59.83
57859;BME280;49153;45.568;11.894;2022-08-03T00:08:21;101397.25;;;25.05;60.07
57859;BME280;49153;45.568;11.894;2022-08-03T00:10:46;101406.00;;;25.07;59.89
57859;BME280;49153;45.568;11.894;2022-08-03T00:13:12;101403.69;;;25.04;59.43
57859;BME280;49153;45.568;11.894;2022-08-03T00:15:39;101420.81;;;25.11;59.79
57859;BME280;49153;45.568;11.894;2022-08-03T00:18:05;101394.00;;;24.95;59.43
57859;BME280;49153;45.568;11.894;2022-08-03T00:20:31;101415.59;;;25.10;59.22
57859;BME280;49153;45.568;11.894;2022-08-03T00:22:56;101390.47;;;24.95;59.37
57859;BME280;49153;45.568;11.894;2022-08-03T00:25:22;101400.53;;;25.01;59.45
57859;BME280;49153;45.568;11.894;2022-08-03T00:27:47;101391.31;;;24.95;59.58
57859;BME280;49153;45.568;11.894;2022-08-03T00:30:13;101415.59;;;25.10;59.40
57859;BME280;49153;45.568;11.894;2022-08-03T00:32:38;101397.34;;;24.97;59.49
57859;BME280;49153;45.568;11.894;2022-08-03T00:35:04;101407.59;;;25.02;59.38
57859;BME280;49153;45.568;11.894;2022-08-03T00:37:30;101415.06;;;25.00;59.23
57859;BME280;49153;45.568;11.894;2022-08-03T00:39:55;101423.78;;;25.02;59.43
57859;BME280;49153;45.568;11.894;2022-08-03T00:42:21;101393.31;;;24.78;59.17
57859;BME280;49153;45.568;11.894;2022-08-03T00:44:46;101396.47;;;24.82;59.46
57859;BME280;49153;45.568;11.894;2022-08-03T00:47:11;101401.03;;;24.81;59.44
57859;BME280;49153;45.568;11.894;2022-08-03T00:49:38;101404.75;;;24.80;59.46
57859;BME280;49153;45.568;11.894;2022-08-03T00:52:06;101421.06;;;24.87;59.69
57859;BME280;49153;45.568;11.894;2022-08-03T00:54:33;101399.75;;;24.77;59.41
57859;BME280;49153;45.568;11.894;2022-08-03T00:56:59;101403.56;;;24.68;59.42
57859;BME280;49153;45.568;11.894;2022-08-03T00:59:25;101402.22;;;24.50;59.53
57859;BME280;49153;45.568;11.894;2022-08-03T01:01:52;101404.44;;;24.46;59.84
57859;BME280;49153;45.568;11.894;2022-08-03T01:04:18;101390.84;;;24.39;60.30
57859;BME280;49153;45.568;11.894;2022-08-03T01:07:02;101414.13;;;24.55;60.67
57859;BME280;49153;45.568;11.894;2022-08-03T01:10:05;101407.06;;;24.54;60.42
57859;BME280;49153;45.568;11.894;2022-08-03T01:12:34;101409.56;;;24.56;60.07
57859;BME280;49153;45.568;11.894;2022-08-03T01:17:58;101404.16;;;24.41;60.53
57859;BME280;49153;45.568;11.894;2022-08-03T01:20:26;101399.78;;;24.40;60.30
57859;BME280;49153;45.568;11.894;2022-08-03T01:23:25;101376.03;;;24.21;60.54
57859;BME280;49153;45.568;11.894;2022-08-03T01:26:16;101399.50;;;24.35;60.63
57859;BME280;49153;45.568;11.894;2022-08-03T01:29:05;101400.34;;;24.35;60.76
57859;BME280;49153;45.568;11.894;2022-08-03T01:31:38;101397.81;;;24.34;60.88
57859;BME280;49153;45.568;11.894;2022-08-03T01:34:08;101370.44;;;24.22;60.57
57859;BME280;49153;45.568;11.894;2022-08-03T01:36:41;101388.88;;;24.33;60.93
57859;BME280;49153;45.568;11.894;2022-08-03T01:39:10;101384.72;;;24.31;60.80
57859;BME280;49153;45.568;11.894;2022-08-03T01:41:45;101401.19;;;24.36;60.86
57859;BME280;49153;45.568;11.894;2022-08-03T01:44:12;101385.13;;;24.20;61.04
57859;BME280;49153;45.568;11.894;2022-08-03T01:46:39;101399.09;;;24.23;61.30
57859;BME280;49153;45.568;11.894;2022-08-03T01:49:08;101375.13;;;24.06;61.34
57859;BME280;49153;45.568;11.894;2022-08-03T01:51:40;101399.00;;;24.09;61.21
57859;BME280;49153;45.568;11.894;2022-08-03T01:54:08;101389.66;;;23.96;61.94
57859;BME280;49153;45.568;11.894;2022-08-03T01:56:36;101399.59;;;23.96;62.26
57859;BME280;49153;45.568;11.894;2022-08-03T01:59:03;101386.03;;;23.89;62.08
57859;BME280;49153;45.568;11.894;2022-08-03T02:01:30;101403.69;;;23.92;62.41
57859;BME280;49153;45.568;11.894;2022-08-03T02:03:57;101401.00;;;23.92;62.64
57859;BME280;49153;45.568;11.894;2022-08-03T02:06:24;101387.88;;;23.89;62.58
57859;BME280;49153;45.568;11.894;2022-08-03T02:08:51;101359.91;;;23.67;62.18
57859;BME280;49153;45.568;11.894;2022-08-03T02:11:19;101391.47;;;23.81;62.58
57859;BME280;49153;45.568;11.894;2022-08-03T02:13:46;101389.78;;;23.80;62.51
57859;BME280;49153;45.568;11.894;2022-08-03T02:16:12;101375.06;;;23.68;62.67
57859;BME280;49153;45.568;11.894;2022-08-03T02:18:39;101390.03;;;23.71;62.80
57859;BME280;49153;45.568;11.894;2022-08-03T02:21:08;101386.19;;;23.65;62.62
57859;BME280;49153;45.568;11.894;2022-08-03T02:23:35;101395.09;;;23.66;62.51
57859;BME280;49153;45.568;11.894;2022-08-03T02:26:03;101374.16;;;23.45;62.84
57859;BME280;49153;45.568;11.894;2022-08-03T02:28:35;101384.44;;;23.49;62.93
57859;BME280;49153;45.568;11.894;2022-08-03T02:31:06;101392.66;;;23.56;63.54
57859;BME280;49153;45.568;11.894;2022-08-03T02:33:39;101391.94;;;23.62;63.31
57859;BME280;49153;45.568;11.894;2022-08-03T02:36:07;101395.28;;;23.64;63.37
57859;BME280;49153;45.568;11.894;2022-08-03T02:38:36;101385.25;;;23.58;63.42
57859;BME280;49153;45.568;11.894;2022-08-03T02:41:06;101389.41;;;23.61;63.25
57859;BME280;49153;45.568;11.894;2022-08-03T02:43:34;101386.28;;;23.49;63.22
57859;BME280;49153;45.568;11.894;2022-08-03T02:46:01;101381.56;;;23.43;63.43
57859;BME280;49153;45.568;11.894;2022-08-03T02:48:28;101395.69;;;23.53;63.77
57859;BME280;49153;45.568;11.894;2022-08-03T02:50:57;101387.50;;;23.46;63.89
57859;BME280;49153;45.568;11.894;2022-08-03T02:53:24;101391.19;;;23.37;63.62
57859;BME280;49153;45.568;11.894;2022-08-03T02:55:51;101394.72;;;23.38;63.90
57859;BME280;49153;45.568;11.894;2022-08-03T02:58:19;101393.09;;;23.29;64.07
57859;BME280;49153;45.568;11.894;2022-08-03T03:00:48;101373.47;;;23.12;64.32
57859;BME280;49153;45.568;11.894;2022-08-03T03:03:16;101367.25;;;23.11;63.97
57859;BME280;49153;45.568;11.894;2022-08-03T03:05:43;101372.25;;;23.23;64.49
57859;BME280;49153;45.568;11.894;2022-08-03T03:08:12;101399.63;;;23.34;64.37
57859;BME280;49153;45.568;11.894;2022-08-03T03:10:38;101377.63;;;23.31;63.98
57859;BME280;49153;45.568;11.894;2022-08-03T03:13:06;101371.91;;;23.26;64.19
57859;BME280;49153;45.568;11.894;2022-08-03T03:15:34;101386.16;;;23.34;63.74
57859;BME280;49153;45.568;11.894;2022-08-03T03:18:01;101380.34;;;23.23;64.09
57859;BME280;49153;45.568;11.894;2022-08-03T03:20:27;101392.78;;;23.24;63.80
57859;BME280;49153;45.568;11.894;2022-08-03T03:22:54;101372.31;;;23.06;63.94
57859;BME280;49153;45.568;11.894;2022-08-03T03:25:20;101386.91;;;23.20;64.10
57859;BME280;49153;45.568;11.894;2022-08-03T03:27:46;101370.63;;;23.05;63.75
57859;BME280;49153;45.568;11.894;2022-08-03T03:30:13;101383.94;;;23.07;63.82
57859;BME280;49153;45.568;11.894;2022-08-03T03:32:39;101369.84;;;22.97;64.05
57859;BME280;49153;45.568;11.894;2022-08-03T03:35:05;101380.75;;;23.03;64.04
57859;BME280;49153;45.568;11.894;2022-08-03T03:37:32;101389.16;;;23.00;63.87
57859;BME280;49153;45.568;11.894;2022-08-03T03:39:57;101366.69;;;22.85;64.13
57859;BME280;49153;45.568;11.894;2022-08-03T03:42:24;101379.13;;;22.86;64.33
57859;BME280;49153;45.568;11.894;2022-08-03T03:44:50;101374.63;;;22.79;64.92
57859;BME280;49153;45.568;11.894;2022-08-03T03:47:16;101380.19;;;22.77;64.64
57859;BME280;49153;45.568;11.894;2022-08-03T03:49:42;101378.50;;;22.76;65.19
57859;BME280;49153;45.568;11.894;2022-08-03T03:52:07;101385.25;;;22.72;65.16
57859;BME280;49153;45.568;11.894;2022-08-03T03:54:43;101397.66;;;22.81;64.94
57859;BME280;49153;45.568;11.894;2022-08-03T03:57:09;101389.94;;;22.78;65.13
57859;BME280;49153;45.568;11.894;2022-08-03T03:59:40;101400.66;;;22.86;65.14
57859;BME280;49153;45.568;11.894;2022-08-03T04:02:06;101390.59;;;22.80;64.92
57859;BME280;49153;45.568;11.894;2022-08-03T04:04:33;101398.50;;;22.82;65.20
57859;BME280;49153;45.568;11.894;2022-08-03T04:07:18;101394.97;;;22.81;65.08
57859;BME280;49153;45.568;11.894;2022-08-03T04:10:06;101403.72;;;22.83;64.68
57859;BME280;49153;45.568;11.894;2022-08-03T04:12:55;101395.84;;;22.73;65.05
57859;BME280;49153;45.568;11.894;2022-08-03T04:15:22;101384.88;;;22.67;64.98
57859;BME280;49153;45.568;11.894;2022-08-03T04:17:50;101386.91;;;22.65;65.27
57859;BME280;49153;45.568;11.894;2022-08-03T04:20:19;101386.06;;;22.64;65.28
57859;BME280;49153;45.568;11.894;2022-08-03T04:22:48;101397.00;;;22.71;65.49
57859;BME280;49153;45.568;11.894;2022-08-03T04:25:16;101382.72;;;22.62;65.46
57859;BME280;49153;45.568;11.894;2022-08-03T04:27:45;101397.50;;;22.74;65.28
57859;BME280;49153;45.568;11.894;2022-08-03T04:30:13;101392.09;;;22.66;65.67
57859;BME280;49153;45.568;11.894;2022-08-03T04:32:39;101394.63;;;22.76;65.61
57859;BME280;49153;45.568;11.894;2022-08-03T04:35:08;101408.91;;;22.85;65.25
57859;BME280;49153;45.568;11.894;2022-08-03T04:37:54;101376.13;;;22.65;65.58
57859;BME280;49153;45.568;11.894;2022-08-03T04:40:27;101409.94;;;22.76;65.29
57859;BME280;49153;45.568;11.894;2022-08-03T04:42:54;101393.59;;;22.69;65.60
57859;BME280;49153;45.568;11.894;2022-08-03T04:45:21;101403.72;;;22.75;65.58
57859;BME280;49153;45.568;11.894;2022-08-03T04:47:47;101390.91;;;22.69;65.40
57859;BME280;49153;45.568;11.894;2022-08-03T04:50:14;101406.41;;;22.75;65.58
57859;BME280;49153;45.568;11.894;2022-08-03T04:52:40;101412.44;;;22.85;65.34
57859;BME280;49153;45.568;11.894;2022-08-03T04:55:06;101416.47;;;22.89;65.52
57859;BME280;49153;45.568;11.894;2022-08-03T04:57:32;101402.34;;;22.79;65.49
57859;BME280;49153;45.568;11.894;2022-08-03T04:59:57;101404.03;;;22.80;65.81
57859;BME280;49153;45.568;11.894;2022-08-03T05:02:22;101426.53;;;22.95;65.97
57859;BME280;49153;45.568;11.894;2022-08-03T05:04:48;101405.03;;;22.87;65.86
57859;BME280;49153;45.568;11.894;2022-08-03T05:07:15;101428.84;;;23.06;65.49
57859;BME280;49153;45.568;11.894;2022-08-03T05:09:41;101421.13;;;23.03;65.83
57859;BME280;49153;45.568;11.894;2022-08-03T05:12:07;101402.50;;;22.94;65.73
57859;BME280;49153;45.568;11.894;2022-08-03T05:14:33;101416.22;;;23.15;65.76
57859;BME280;49153;45.568;11.894;2022-08-03T05:17:02;101416.03;;;23.16;65.53
57859;BME280;49153;45.568;11.894;2022-08-03T05:19:27;101410.00;;;23.14;65.42
57859;BME280;49153;45.568;11.894;2022-08-03T05:21:53;101441.53;;;23.37;65.43
57859;BME280;49153;45.568;11.894;2022-08-03T05:24:18;101415.97;;;23.33;65.36
57859;BME280;49153;45.568;11.894;2022-08-03T05:26:44;101424.00;;;23.41;64.64
57859;BME280;49153;45.568;11.894;2022-08-03T05:29:09;101419.09;;;23.44;64.90
57859;BME280;49153;45.568;11.894;2022-08-03T05:31:35;101421.31;;;23.49;64.89
57859;BME280;49153;45.568;11.894;2022-08-03T05:34:00;101439.22;;;23.65;65.09
57859;BME280;49153;45.568;11.894;2022-08-03T05:36:26;101429.13;;;23.67;65.06
57859;BME280;49153;45.568;11.894;2022-08-03T05:38:51;101437.09;;;23.83;64.84
57859;BME280;49153;45.568;11.894;2022-08-03T05:41:17;101438.44;;;23.87;64.97
57859;BME280;49153;45.568;11.894;2022-08-03T05:43:43;101433.81;;;23.95;64.66
57859;BME280;49153;45.568;11.894;2022-08-03T05:46:08;101437.78;;;24.08;65.36
57859;BME280;49153;45.568;11.894;2022-08-03T05:48:34;101422.56;;;24.15;64.61
57859;BME280;49153;45.568;11.894;2022-08-03T05:50:59;101438.81;;;24.29;64.64
57859;BME280;49153;45.568;11.894;2022-08-03T05:53:25;101434.56;;;24.35;64.23
57859;BME280;49153;45.568;11.894;2022-08-03T05:55:50;101431.13;;;24.41;63.86
57859;BME280;49153;45.568;11.894;2022-08-03T05:58:16;101425.84;;;24.48;63.64
57859;BME280;49153;45.568;11.894;2022-08-03T06:00:41;101432.28;;;24.61;63.55
57859;BME280;49153;45.568;11.894;2022-08-03T06:03:07;101441.97;;;24.70;62.84
57859;BME280;49153;45.568;11.894;2022-08-03T06:05:32;101419.09;;;24.66;62.79
57859;BME280;49153;45.568;11.894;2022-08-03T06:08:01;101414.44;;;24.75;63.07
57859;BME280;49153;45.568;11.894;2022-08-03T06:10:26;101403.75;;;24.81;63.23
57859;BME280;49153;45.568;11.894;2022-08-03T06:12:52;101421.75;;;25.04;62.49
57859;BME280;49153;45.568;11.894;2022-08-03T06:15:17;101415.22;;;25.13;62.41
57859;BME280;49153;45.568;11.894;2022-08-03T06:17:46;101423.22;;;25.21;61.97
57859;BME280;49153;45.568;11.894;2022-08-03T06:20:14;101413.34;;;25.28;62.43
57859;BME280;49153;45.568;11.894;2022-08-03T06:22:41;101430.66;;;25.48;62.41
57859;BME280;49153;45.568;11.894;2022-08-03T06:25:07;101421.97;;;25.53;61.79
57859;BME280;49153;45.568;11.894;2022-08-03T06:27:33;101413.31;;;25.57;61.80
57859;BME280;49153;45.568;11.894;2022-08-03T06:29:58;101432.91;;;25.81;61.54
57859;BME280;49153;45.568;11.894;2022-08-03T06:32:24;101426.09;;;25.85;60.82
57859;BME280;49153;45.568;11.894;2022-08-03T06:34:49;101437.03;;;25.98;61.03
57859;BME280;49153;45.568;11.894;2022-08-03T06:37:15;101427.75;;;26.07;60.35
57859;BME280;49153;45.568;11.894;2022-08-03T06:39:40;101430.59;;;26.20;60.14
57859;BME280;49153;45.568;11.894;2022-08-03T06:42:06;101415.69;;;26.24;59.33
57859;BME280;49153;45.568;11.894;2022-08-03T06:44:31;101444.41;;;26.46;59.89
57859;BME280;49153;45.568;11.894;2022-08-03T06:46:57;101425.44;;;26.46;59.97
57859;BME280;49153;45.568;11.894;2022-08-03T06:49:23;101435.75;;;26.58;58.91
57859;BME280;49153;45.568;11.894;2022-08-03T06:51:48;101439.44;;;26.78;58.65
57859;BME280;49153;45.568;11.894;2022-08-03T06:54:21;101461.25;;;26.98;58.94
57859;BME280;49153;45.568;11.894;2022-08-03T06:56:48;101437.72;;;26.98;58.07
57859;BME280;49153;45.568;11.894;2022-08-03T06:59:14;101445.94;;;27.11;58.13
57859;BME280;49153;45.568;11.894;2022-08-03T07:01:40;101438.88;;;27.17;57.89
57859;BME280;49153;45.568;11.894;2022-08-03T07:04:05;101446.44;;;27.28;57.91
57859;BME280;49153;45.568;11.894;2022-08-03T07:06:30;101454.00;;;27.46;56.57
57859;BME280;49153;45.568;11.894;2022-08-03T07:08:56;101442.78;;;27.49;57.07
57859;BME280;49153;45.568;11.894;2022-08-03T07:11:22;101455.97;;;27.58;56.32
57859;BME280;49153;45.568;11.894;2022-08-03T07:13:47;101465.84;;;27.79;56.11
57859;BME280;49153;45.568;11.894;2022-08-03T07:16:13;101450.44;;;27.86;54.73
57859;BME280;49153;45.568;11.894;2022-08-03T07:18:38;101460.66;;;27.91;55.55
57859;BME280;49153;45.568;11.894;2022-08-03T07:21:04;101447.53;;;27.94;54.96
57859;BME280;49153;45.568;11.894;2022-08-03T07:23:30;101455.28;;;28.10;55.22
57859;BME280;49153;45.568;11.894;2022-08-03T07:25:55;101450.09;;;28.16;53.89
57859;BME280;49153;45.568;11.894;2022-08-03T07:28:20;101451.56;;;28.31;54.68
57859;BME280;49153;45.568;11.894;2022-08-03T07:30:46;101472.25;;;28.52;53.44
57859;BME280;49153;45.568;11.894;2022-08-03T07:33:11;101450.94;;;28.55;53.15
57859;BME280;49153;45.568;11.894;2022-08-03T07:35:37;101452.63;;;28.63;52.63
57859;BME280;49153;45.568;11.894;2022-08-03T07:38:03;101459.53;;;28.72;52.63
57859;BME280;49153;45.568;11.894;2022-08-03T07:40:28;101444.91;;;28.73;51.54
57859;BME280;49153;45.568;11.894;2022-08-03T07:42:54;101461.81;;;28.88;51.78
57859;BME280;49153;45.568;11.894;2022-08-03T07:45:20;101451.78;;;28.95;51.05
57859;BME280;49153;45.568;11.894;2022-08-03T07:47:47;101465.75;;;29.06;51.11
57859;BME280;49153;45.568;11.894;2022-08-03T07:50:13;101475.56;;;29.13;50.40
57859;BME280;49153;45.568;11.894;2022-08-03T07:52:39;101459.25;;;29.13;50.58
57859;BME280;49153;45.568;11.894;2022-08-03T07:55:19;101470.91;;;29.27;50.02
57859;BME280;49153;45.568;11.894;2022-08-03T07:57:45;101473.63;;;29.40;50.15
57859;BME280;49153;45.568;11.894;2022-08-03T08:00:20;101464.66;;;29.40;48.61
57859;BME280;49153;45.568;11.894;2022-08-03T08:02:45;101475.25;;;29.54;48.43
57859;BME280;49153;45.568;11.894;2022-08-03T08:05:11;101481.25;;;29.69;49.07
57859;BME280;49153;45.568;11.894;2022-08-03T08:07:37;101477.00;;;29.80;49.02
57859;BME280;49153;45.568;11.894;2022-08-03T08:10:07;101481.16;;;29.83;48.04
57859;BME280;49153;45.568;11.894;2022-08-03T08:12:34;101477.19;;;29.92;49.12
57859;BME280;49153;45.568;11.894;2022-08-03T08:15:00;101466.91;;;29.94;47.15
57859;BME280;49153;45.568;11.894;2022-08-03T08:17:26;101475.88;;;30.01;47.88
57859;BME280;49153;45.568;11.894;2022-08-03T08:19:51;101472.66;;;30.10;47.59
57859;BME280;49153;45.568;11.894;2022-08-03T08:22:17;101484.13;;;30.19;47.93
57859;BME280;49153;45.568;11.894;2022-08-03T08:24:43;101479.28;;;30.21;47.80
57859;BME280;49153;45.568;11.894;2022-08-03T08:27:09;101475.25;;;30.30;46.26
57859;BME280;49153;45.568;11.894;2022-08-03T08:29:37;101473.53;;;30.36;46.66
57859;BME280;49153;45.568;11.894;2022-08-03T08:32:02;101475.00;;;30.38;46.38
57859;BME280;49153;45.568;11.894;2022-08-03T08:34:28;101472.41;;;30.50;45.14
57859;BME280;49153;45.568;11.894;2022-08-03T08:36:53;101473.41;;;30.55;45.82
57859;BME280;49153;45.568;11.894;2022-08-03T08:39:19;101468.41;;;30.52;45.10
57859;BME280;49153;45.568;11.894;2022-08-03T08:41:44;101481.09;;;30.65;45.36
57859;BME280;49153;45.568;11.894;2022-08-03T08:44:10;101468.47;;;30.71;44.97
57859;BME280;49153;45.568;11.894;2022-08-03T08:46:37;101481.34;;;30.82;44.07
57859;BME280;49153;45.568;11.894;2022-08-03T08:49:03;101477.50;;;30.89;45.09
57859;BME280;49153;45.568;11.894;2022-08-03T08:51:30;101478.63;;;31.00;43.71
57859;BME280;49153;45.568;11.894;2022-08-03T08:54:00;101468.06;;;31.10;43.72
57859;BME280;49153;45.568;11.894;2022-08-03T08:56:27;101477.41;;;31.21;43.82
57859;BME280;49153;45.568;11.894;2022-08-03T08:58:57;101454.91;;;31.25;43.57
57859;BME280;49153;45.568;11.894;2022-08-03T09:01:23;101484.06;;;31.43;41.87
57859;BME280;49153;45.568;11.894;2022-08-03T09:03:49;101482.41;;;31.42;43.39
57859;BME280;49153;45.568;11.894;2022-08-03T09:06:15;101490.66;;;31.54;43.39
57859;BME280;49153;45.568;11.894;2022-08-03T09:08:41;101484.31;;;31.60;42.32
57859;BME280;49153;45.568;11.894;2022-08-03T09:11:06;101490.66;;;31.72;41.51
57859;BME280;49153;45.568;11.894;2022-08-03T09:13:32;101482.94;;;31.69;40.16
57859;BME280;49153;45.568;11.894;2022-08-03T09:16:11;101487.94;;;31.72;41.40
57859;BME280;49153;45.568;11.894;2022-08-03T09:18:38;101477.31;;;31.82;41.00
57859;BME280;49153;45.568;11.894;2022-08-03T09:21:22;101474.44;;;31.77;40.63
57859;BME280;49153;45.568;11.894;2022-08-03T09:23:57;101478.50;;;31.86;41.14
57859;BME280;49153;45.568;11.894;2022-08-03T09:26:25;101462.75;;;31.88;40.60
57859;BME280;49153;45.568;11.894;2022-08-03T09:29:05;101461.19;;;31.92;40.29
57859;BME280;49153;45.568;11.894;2022-08-03T09:31:32;101459.72;;;32.08;40.53
57859;BME280;49153;45.568;11.894;2022-08-03T09:34:07;101453.75;;;32.11;40.56
57859;BME280;49153;45.568;11.894;2022-08-03T09:39:09;101455.81;;;32.15;38.70
57859;BME280;49153;45.568;11.894;2022-08-03T09:41:40;101464.78;;;32.34;39.81
57859;BME280;49153;45.568;11.894;2022-08-03T09:44:06;101459.47;;;32.51;40.42
57859;BME280;49153;45.568;11.894;2022-08-03T09:46:48;101447.22;;;32.53;39.70
57859;BME280;49153;45.568;11.894;2022-08-03T09:52:19;101459.59;;;32.79;38.53
57859;BME280;49153;45.568;11.894;2022-08-03T09:55:13;101466.25;;;32.95;38.46
57859;BME280;49153;45.568;11.894;2022-08-03T09:57:40;101453.19;;;32.97;38.54
57859;BME280;49153;45.568;11.894;2022-08-03T10:00:14;101461.06;;;32.93;36.87
57859;BME280;49153;45.568;11.894;2022-08-03T10:02:43;101449.88;;;32.83;36.54
57859;BME280;49153;45.568;11.894;2022-08-03T10:05:12;101457.81;;;32.85;36.48
57859;BME280;49153;45.568;11.894;2022-08-03T10:07:44;101455.59;;;32.93;38.32
57859;BME280;49153;45.568;11.894;2022-08-03T10:10:10;101459.38;;;32.92;37.77
57859;BME280;49153;45.568;11.894;2022-08-03T10:12:37;101456.38;;;33.05;38.17
57859;BME280;49153;45.568;11.894;2022-08-03T10:15:04;101437.84;;;33.07;38.10
57859;BME280;49153;45.568;11.894;2022-08-03T10:17:30;101448.41;;;33.27;38.05
57859;BME280;49153;45.568;11.894;2022-08-03T10:19:55;101432.00;;;33.27;37.26
57859;BME280;49153;45.568;11.894;2022-08-03T10:22:25;101435.88;;;33.43;36.89
57859;BME280;49153;45.568;11.894;2022-08-03T10:24:57;101445.94;;;33.54;36.95
57859;BME280;49153;45.568;11.894;2022-08-03T10:27:24;101445.56;;;33.62;37.30
57859;BME280;49153;45.568;11.894;2022-08-03T10:29:55;101426.50;;;33.67;37.06
57859;BME280;49153;45.568;11.894;2022-08-03T10:32:31;101440.56;;;33.71;34.85
57859;BME280;49153;45.568;11.894;2022-08-03T10:35:11;101429.94;;;33.74;36.26
57859;BME280;49153;45.568;11.894;2022-08-03T10:37:44;101427.56;;;33.78;36.14
57859;BME280;49153;45.568;11.894;2022-08-03T10:40:15;101420.59;;;33.87;37.25
57859;BME280;49153;45.568;11.894;2022-08-03T10:42:46;101422.94;;;33.95;36.91
57859;BME280;49153;45.568;11.894;2022-08-03T10:45:22;101421.09;;;34.01;36.81
57859;BME280;49153;45.568;11.894;2022-08-03T10:47:50;101414.06;;;34.05;37.30
57859;BME280;49153;45.568;11.894;2022-08-03T10:50:16;101413.53;;;34.19;36.93
57859;BME280;49153;45.568;11.894;2022-08-03T10:52:59;101406.47;;;34.23;35.32
57859;BME280;49153;45.568;11.894;2022-08-03T11:01:04;101385.53;;;34.34;34.77
57859;BME280;49153;45.568;11.894;2022-08-03T11:06:18;101408.84;;;34.53;33.94
57859;BME280;49153;45.568;11.894;2022-08-03T11:08:44;101417.34;;;34.68;35.41
57859;BME280;49153;45.568;11.894;2022-08-03T11:16:31;101377.94;;;34.74;36.10
57859;BME280;49153;45.568;11.894;2022-08-03T11:19:00;101394.81;;;35.05;35.82
57859;BME280;49153;45.568;11.894;2022-08-03T11:25:16;101401.66;;;35.24;34.06
57859;BME280;49153;45.568;11.894;2022-08-03T11:35:27;101391.50;;;35.25;31.78
57859;BME280;49153;45.568;11.894;2022-08-03T11:40:43;101387.66;;;35.04;34.00
57859;BME280;49153;45.568;11.894;2022-08-03T11:46:06;101377.22;;;35.06;33.28
57859;BME280;49153;45.568;11.894;2022-08-03T11:48:37;101378.97;;;35.12;32.83
57859;BME280;49153;45.568;11.894;2022-08-03T11:51:05;101375.34;;;35.28;34.04
57859;BME280;49153;45.568;11.894;2022-08-03T11:53:31;101376.09;;;35.45;33.58
57859;BME280;49153;45.568;11.894;2022-08-03T11:55:59;101366.81;;;35.51;34.53
57859;BME280;49153;45.568;11.894;2022-08-03T11:58:25;101370.41;;;35.52;32.92
57859;BME280;49153;45.568;11.894;2022-08-03T12:00:51;101364.03;;;35.46;33.51
57859;BME280;49153;45.568;11.894;2022-08-03T12:03:18;101367.16;;;35.60;32.81
57859;BME280;49153;45.568;11.894;2022-08-03T12:05:47;101367.00;;;35.67;32.38
57859;BME280;49153;45.568;11.894;2022-08-03T12:08:21;101356.06;;;35.72;32.23
57859;BME280;49153;45.568;11.894;2022-08-03T12:10:55;101352.22;;;35.73;32.76
57859;BME280;49153;45.568;11.894;2022-08-03T12:13:22;101359.72;;;35.82;31.73
57859;BME280;49153;45.568;11.894;2022-08-03T12:15:53;101352.81;;;35.80;32.17
57859;BME280;49153;45.568;11.894;2022-08-03T12:18:20;101356.50;;;35.90;32.91
57859;BME280;49153;45.568;11.894;2022-08-03T12:20:48;101350.78;;;35.97;32.32
57859;BME280;49153;45.568;11.894;2022-08-03T12:23:14;101344.16;;;35.93;32.19
57859;BME280;49153;45.568;11.894;2022-08-03T12:25:41;101348.75;;;36.14;31.98
57859;BME280;49153;45.568;11.894;2022-08-03T12:28:17;101348.31;;;36.27;31.40
57859;BME280;49153;45.568;11.894;2022-08-03T12:30:50;101342.81;;;36.27;31.20
57859;BME280;49153;45.568;11.894;2022-08-03T12:33:17;101344.47;;;36.33;30.24
57859;BME280;49153;45.568;11.894;2022-08-03T12:35:45;101345.75;;;36.16;30.40
57859;BME280;49153;45.568;11.894;2022-08-03T12:38:11;101338.38;;;36.21;31.35
57859;BME280;49153;45.568;11.894;2022-08-03T12:40:37;101339.47;;;36.20;30.88
57859;BME280;49153;45.568;11.894;2022-08-03T12:43:13;101337.31;;;36.27;31.11
57859;BME280;49153;45.568;11.894;2022-08-03T12:45:39;101332.47;;;36.45;30.88
57859;BME280;49153;45.568;11.894;2022-08-03T12:48:08;101330.50;;;36.40;30.28
57859;BME280;49153;45.568;11.894;2022-08-03T12:50:35;101330.50;;;36.40;30.12
57859;BME280;49153;45.568;11.894;2022-08-03T12:53:04;101328.06;;;36.49;30.27
57859;BME280;49153;45.568;11.894;2022-08-03T12:55:30;101331.34;;;36.40;30.33
57859;BME280;49153;45.568;11.894;2022-08-03T12:57:59;101324.16;;;36.34;29.91
57859;BME280;49153;45.568;11.894;2022-08-03T13:00:25;101327.72;;;36.35;29.41
57859;BME280;49153;45.568;11.894;2022-08-03T13:03:07;101323.28;;;36.29;29.16
57859;BME280;49153;45.568;11.894;2022-08-03T13:05:43;101317.56;;;36.35;29.64
57859;BME280;49153;45.568;11.894;2022-08-03T13:08:23;101317.84;;;36.39;30.23
57859;BME280;49153;45.568;11.894;2022-08-03T13:10:49;101317.34;;;36.42;29.99
57859;BME280;49153;45.568;11.894;2022-08-03T13:13:15;101312.13;;;36.46;29.85
57859;BME280;49153;45.568;11.894;2022-08-03T13:15:41;101316.31;;;36.58;29.96
57859;BME280;49153;45.568;11.894;2022-08-03T13:18:06;101305.31;;;36.53;29.29
57859;BME280;49153;45.568;11.894;2022-08-03T13:20:32;101308.97;;;36.64;29.37
57859;BME280;49153;45.568;11.894;2022-08-03T13:22:58;101308.34;;;36.57;29.00
57859;BME280;49153;45.568;11.894;2022-08-03T13:25:23;101306.75;;;36.66;30.51